Flight Track Log - Related Links

Times and Time Zones

All times are in EDT time to prevent confusion due to time zone crossing. See the N44KS flight status page for this flight to view local times or setup timezone preferences in your user account.

Time Position Orientation Groundspeed Altitude Reporting Facility
EDT Latitude Longitude Course Direction KTS MPH feet Rate Location/Type
Thu 09:25:19 AM 37.1394 -76.4778 357° North 121 139 900  Level Washington Center
Thu 09:26:51 AM 37.1814 -76.4808 357° North 168 193 3,400 1,224 Climbing Washington Center
Thu 09:27:51 AM 37.2122 -76.5306 308° West 199 229 4,000 496 Climbing Washington Center
Thu 09:28:52 AM 37.2219 -76.6092 279° West 247 284 4,400 417 Climbing Washington Center
Thu 09:29:46 AM 37.2028 -76.6636 246° West 240 276 4,800 730 Climbing Washington Center
Thu 09:30:47 AM 37.1503 -76.7072 214° Southwest 234 269 5,800 1,033 Climbing Washington Center
Thu 09:31:48 AM 37.0978 -76.7456 210° Southwest 234 269 6,900 1,059 Climbing Washington Center
Thu 09:32:46 AM 37.0472 -76.7811 209° Southwest 222 255 7,900 1,008 Climbing Washington Center
Thu 09:33:47 AM 36.9969 -76.8167 209° Southwest 217 250 8,900 992 Climbing Washington Center
Thu 09:34:47 AM 36.9506 -76.8497 210° Southwest 206 237 9,900 893 Climbing Washington Center
Thu 09:35:48 AM 36.9003 -76.8828 208° Southwest 201 231 10,700 843 Climbing Washington Center
Thu 09:36:48 AM 36.8519 -76.9156 208° Southwest 206 237 11,600 966 Climbing Washington Center
Thu 09:37:46 AM 36.8078 -76.9461 209° Southwest 201 231 12,600 814 Climbing Washington Center
Thu 09:38:46 AM 36.7614 -76.9789 210° Southwest 201 231 13,200 595 Climbing Washington Center
Thu 09:39:47 AM 36.7150 -77.0144 212° Southwest 201 231 13,800 403 Climbing Washington Center
Thu 09:40:45 AM 36.6831 -77.0758 237° Southwest 201 231 14,000 101 Climbing Washington Center
Thu 09:41:46 AM 36.6508 -77.1478 241° Southwest 224 258 14,000  Level Washington Center
Thu 09:42:46 AM 36.6164 -77.2222 240° Southwest 239 275 14,000  Level Washington Center
Thu 09:43:47 AM 36.5800 -77.2964 239° Southwest 252 290 14,000  Level Washington Center
Thu 09:44:48 AM 36.5456 -77.3758 242° Southwest 252 290 14,000  Level Washington Center
Thu 09:45:48 AM 36.5089 -77.4500 238° Southwest 252 290 14,000  Level Washington Center
Thu 09:46:46 AM 36.4722 -77.5292 240° Southwest 263 303 14,000  Level Washington Center
Thu 09:47:47 AM 36.4375 -77.6083 241° Southwest 263 303 14,000  Level Washington Center
Thu 09:48:47 AM 36.4028 -77.6822 240° Southwest 263 303 14,000  Level Washington Center
Thu 09:49:48 AM 36.3681 -77.7614 241° Southwest 263 303 14,000  Level Washington Center
Thu 09:50:48 AM 36.3311 -77.8378 239° Southwest 263 303 14,000  Level Washington Center
Thu 09:51:46 AM 36.2922 -77.9164 238° Southwest 263 303 14,000  Level Washington Center
Thu 09:52:46 AM 36.2550 -77.9925 239° Southwest 263 303 14,000  Level Washington Center
Thu 09:53:46 AM 36.2203 -78.0689 241° Southwest 263 303 14,000  Level Washington Center
Thu 09:54:48 AM 36.1786 -78.1550 239° Southwest 263 303 14,000  Level Washington Center
Thu 09:55:48 AM 36.1664 -78.2419 260° West 258 297 14,000  Level Washington Center
Thu 09:56:47 AM 36.1603 -78.3319 265° West 258 297 14,000  Level Washington Center
Thu 09:57:47 AM 36.1561 -78.4167 267° West 258 297 14,000  Level Washington Center
Thu 09:58:48 AM 36.1497 -78.5064 265° West 253 291 14,000  Level Washington Center
Thu 09:59:46 AM 36.1436 -78.5936 265° West 253 291 14,000  Level Washington Center
Thu 10:00:46 AM 36.1372 -78.6808 265° West 253 291 14,000  Level Washington Center
Thu 10:01:47 AM 36.1306 -78.7706 265° West 253 291 14,000  Level Washington Center
Thu 10:02:47 AM 36.1281 -78.8606 268° West 253 291 14,000  Level Washington Center
Thu 10:03:48 AM 36.1217 -78.9478 265° West 253 291 14,000 -149 Level Washington Center
Thu 10:04:48 AM 36.1147 -79.0375 265° West 253 291 13,700 -407 Descending Washington Center
Thu 10:05:46 AM 36.1058 -79.1294 263° West 259 298 13,200 -339 Descending Washington Center
Thu 10:07:00 AM 36.1003 -79.2121 265° West  Level FlightAware Approximate
Thu 10:14:00 AM 36.0553 -79.6796 263° West  Level FlightAware Approximate
Thu 10:15:00 AM 36.0491 -79.7464 265° West  Level FlightAware Approximate
Thu 10:16:00 AM 36.0443 -79.8133 265° West  Level FlightAware Approximate
Thu 10:16:54 AM 35.8806 -80.1100 229° Southwest 258 297 9,600  Level Atlanta Center
Thu 10:17:00 AM 36.0396 -79.8803 265° West  Level FlightAware Approximate
Thu 10:18:00 AM 36.0347 -79.9472 265° West  Level FlightAware Approximate
Thu 10:19:00 AM 36.0078 -80.0024 229° Southwest  Level FlightAware Approximate
Thu 10:20:00 AM 35.9718 -80.0528 229° Southwest  Level FlightAware Approximate
Thu 10:21:00 AM 35.9359 -80.1031 229° Southwest  Level FlightAware Approximate

Login

Don't have an account? Register now (free) for customized features, flight alerts, and more!